createdAt,value
2022-11-12T00:05:19.350Z,1038.1
2022-11-12T00:10:38.267Z,1037.9
2022-11-12T00:16:26.377Z,1038
2022-11-12T00:21:50.060Z,1038
2022-11-12T00:27:28.561Z,1038
2022-11-12T00:33:14.258Z,1038
2022-11-12T00:38:19.994Z,1038
2022-11-12T00:44:18.468Z,1038
2022-11-12T00:49:23.169Z,1038.1
2022-11-12T00:55:22.273Z,1038.1
2022-11-12T01:00:37.432Z,1038.1
2022-11-12T01:06:17.533Z,1038.1
2022-11-12T01:11:53.590Z,1038
2022-11-12T01:17:10.783Z,1038
2022-11-12T01:22:39.693Z,1038
2022-11-12T01:28:22.094Z,1038
2022-11-12T01:34:00.140Z,1037.9
2022-11-12T01:39:32.239Z,1037.8
2022-11-12T01:44:51.837Z,1037.8
2022-11-12T01:50:19.977Z,1037.9
2022-11-12T01:55:58.052Z,1037.7
2022-11-12T02:01:50.270Z,1037.7
2022-11-12T02:07:09.352Z,1037.6
2022-11-12T02:12:41.264Z,1037.8
2022-11-12T02:18:18.168Z,1037.7
2022-11-12T02:23:44.033Z,1037.7
2022-11-12T02:29:21.457Z,1037.8
2022-11-12T02:34:49.507Z,1037.8
2022-11-12T02:40:31.047Z,1037.7
2022-11-12T02:45:56.526Z,1037.8
2022-11-12T02:51:44.050Z,1037.7
2022-11-12T02:56:51.239Z,1037.6
2022-11-12T03:02:39.346Z,1037.6
2022-11-12T03:08:02.944Z,1037.5
2022-11-12T03:13:29.193Z,1037.5
2022-11-12T03:19:23.709Z,1037.4
2022-11-12T03:24:35.109Z,1037.3
2022-11-12T03:30:03.695Z,1037.3
2022-11-12T03:35:47.956Z,1037.3
2022-11-12T03:41:19.513Z,1037.2
2022-11-12T03:46:59.948Z,1037.3
2022-11-12T03:52:20.331Z,1037.2
2022-11-12T03:58:11.937Z,1037.3
2022-11-12T04:03:20.162Z,1037.4
2022-11-12T04:09:03.476Z,1037.3
2022-11-12T04:14:24.588Z,1037.2
2022-11-12T04:20:00.619Z,1037.3
2022-11-12T04:25:49.932Z,1037.3
2022-11-12T04:31:21.857Z,1037.3
2022-11-12T04:36:48.567Z,1037.3
2022-11-12T04:42:20.773Z,1037.3
2022-11-12T04:48:08.327Z,1037.3
2022-11-12T04:53:30.543Z,1037.2
2022-11-12T04:58:59.786Z,1037.2
2022-11-12T05:04:35.240Z,1037.2
2022-11-12T05:09:57.086Z,1037.2
2022-11-12T05:15:33.256Z,1037.2
2022-11-12T05:21:18.065Z,1037.2
2022-11-12T05:26:28.930Z,1037.2
2022-11-12T05:32:26.162Z,1037
2022-11-12T05:37:33.645Z,1037
2022-11-12T05:43:18.138Z,1037
2022-11-12T05:48:50.558Z,1036.9
2022-11-12T05:54:15.848Z,1036.9
2022-11-12T05:59:51.502Z,1036.8
2022-11-12T06:05:14.524Z,1036.8
2022-11-12T06:10:49.277Z,1036.7
2022-11-12T06:16:26.971Z,1036.8
2022-11-12T06:22:02.687Z,1036.8
2022-11-12T06:27:31.692Z,1036.8
2022-11-12T06:33:13.715Z,1036.9
2022-11-12T06:38:29.740Z,1037
2022-11-12T06:44:22.667Z,1036.9
2022-11-12T06:49:51.440Z,1036.9
2022-11-12T06:55:28.960Z,1036.9
2022-11-12T07:00:56.462Z,1037
2022-11-12T07:06:09.917Z,1037
2022-11-12T07:11:58.155Z,1037.1
2022-11-12T07:17:28.702Z,1037.2
2022-11-12T07:23:02.209Z,1037.1
2022-11-12T07:28:43.584Z,1037.2
2022-11-12T07:34:07.078Z,1037.3
2022-11-12T07:39:27.552Z,1037.2
2022-11-12T07:44:59.792Z,1037.3
2022-11-12T07:50:48.229Z,1037.3
2022-11-12T07:56:17.323Z,1037.3
2022-11-12T08:02:02.168Z,1037.4
2022-11-12T08:07:24.163Z,1037.3
2022-11-12T08:12:46.776Z,1037.3
2022-11-12T08:18:39.911Z,1037.3
2022-11-12T08:23:57.782Z,1037.4
2022-11-12T08:29:22.841Z,1037.5
2022-11-12T08:35:01.579Z,1037.6
2022-11-12T08:40:24.241Z,1037.7
2022-11-12T08:46:06.116Z,1037.7
2022-11-12T08:51:38.255Z,1037.6
2022-11-12T08:57:04.085Z,1037.6
2022-11-12T09:02:46.685Z,1037.6
2022-11-12T09:08:22.617Z,1037.5
2022-11-12T09:13:44.543Z,1037.3
2022-11-12T09:19:30.153Z,1037.3
2022-11-12T09:24:59.962Z,1037.1
2022-11-12T09:30:34.928Z,1037.2
2022-11-12T09:36:11.500Z,1037.1
2022-11-12T09:41:30.090Z,1037.2
2022-11-12T09:46:59.246Z,1037.2
2022-11-12T09:52:29.448Z,1037.2
2022-11-12T09:58:18.852Z,1037.2
2022-11-12T10:03:42.942Z,1037.3
2022-11-12T10:09:04.964Z,1037.3
2022-11-12T10:14:44.797Z,1037.3
2022-11-12T10:20:09.601Z,1037.3
2022-11-12T10:25:44.836Z,1037.3
2022-11-12T10:31:26.274Z,1037.1
2022-11-12T10:36:55.499Z,1037
2022-11-12T10:42:26.841Z,1036.8
2022-11-12T10:48:16.922Z,1036.6
2022-11-12T10:53:39.238Z,1036.5
2022-11-12T10:59:07.333Z,1036.5
2022-11-12T11:04:42.598Z,1036.5
2022-11-12T11:10:06.545Z,1036.5
2022-11-12T11:15:39.454Z,1036.6
2022-11-12T11:21:16.632Z,1036.6
2022-11-12T11:27:04.071Z,1036.6
2022-11-12T11:32:26.656Z,1036.5
2022-11-12T11:37:58.511Z,1036.4
2022-11-12T11:43:32.651Z,1036.3
2022-11-12T11:49:15.412Z,1036.1
2022-11-12T11:54:25.393Z,1036.1
2022-11-12T12:00:21.623Z,1036
2022-11-12T12:05:50.756Z,1036.1
2022-11-12T12:11:09.669Z,1036.1
2022-11-12T12:16:41.796Z,1036
2022-11-12T12:22:07.549Z,1035.9
2022-11-12T12:27:42.957Z,1035.9
2022-11-12T12:33:24.896Z,1035.7
2022-11-12T12:39:08.198Z,1035.6
2022-11-12T12:44:22.880Z,1035.5
2022-11-12T12:49:53.868Z,1035.5
2022-11-12T12:55:49.031Z,1035.4
2022-11-12T13:00:59.844Z,1035.3
2022-11-12T13:06:43.373Z,1035.3
2022-11-12T13:12:24.720Z,1035.4
2022-11-12T13:17:50.035Z,1035.3
2022-11-12T13:23:11.443Z,1035.2
2022-11-12T13:28:57.766Z,1035.2
2022-11-12T13:34:22.991Z,1035.3
2022-11-12T13:39:48.766Z,1035.2
2022-11-12T13:45:25.483Z,1035
2022-11-12T13:50:58.663Z,1035
2022-11-12T13:56:39.482Z,1034.8
2022-11-12T14:02:07.296Z,1034.7
2022-11-12T14:07:33.799Z,1034.6
2022-11-12T14:12:57.076Z,1034.7
2022-11-12T14:18:51.227Z,1034.7
2022-11-12T14:24:05.074Z,1034.8
2022-11-12T14:29:43.768Z,1034.8
2022-11-12T14:35:29.697Z,1034.7
2022-11-12T14:40:42.892Z,1034.7
2022-11-12T14:46:33.892Z,1034.6
2022-11-12T14:52:06.405Z,1034.6
2022-11-12T14:57:28.142Z,1034.4
2022-11-12T15:02:59.003Z,1034.3
2022-11-12T15:08:26.200Z,1034.2
2022-11-12T15:14:22.164Z,1034.2
2022-11-12T15:19:42.858Z,1034.1
2022-11-12T15:25:08.447Z,1034.1
2022-11-12T15:30:53.133Z,1034
2022-11-12T15:36:16.837Z,1034
2022-11-12T15:41:57.074Z,1034
2022-11-12T15:47:21.941Z,1033.9
2022-11-12T15:53:09.295Z,1033.8
2022-11-12T15:58:20.542Z,1033.6
2022-11-12T16:04:06.571Z,1033.8
2022-11-12T16:09:28.465Z,1033.7
2022-11-12T16:15:03.702Z,1033.9
2022-11-12T16:20:32.073Z,1033.7
2022-11-12T16:26:06.686Z,1033.7
2022-11-12T16:31:33.301Z,1033.7
2022-11-12T16:37:08.293Z,1033.5
2022-11-12T16:42:34.783Z,1033.6
2022-11-12T16:48:33.392Z,1033.7
2022-11-12T16:53:59.429Z,1033.6
2022-11-12T16:59:32.067Z,1033.6
2022-11-12T17:05:03.247Z,1033.5
2022-11-12T17:10:28.829Z,1033.5
2022-11-12T17:16:10.719Z,1033.6
2022-11-12T17:21:27.648Z,1033.7
2022-11-12T17:27:03.288Z,1033.6
2022-11-12T17:32:43.352Z,1033.7
2022-11-12T17:38:06.396Z,1033.5
2022-11-12T17:43:57.163Z,1033.4
2022-11-12T17:49:30.385Z,1033.3
2022-11-12T17:54:50.042Z,1033.5
2022-11-12T18:00:19.716Z,1033.3
2022-11-12T18:06:11.087Z,1033.2
2022-11-12T18:11:48.079Z,1033.2
2022-11-12T18:17:18.156Z,1033.3
2022-11-12T18:22:31.853Z,1033.2
2022-11-12T18:28:10.897Z,1033.2
2022-11-12T18:33:55.698Z,1033
2022-11-12T18:39:25.993Z,1033.1
2022-11-12T18:50:26.886Z,1032.8
2022-11-12T18:56:00.780Z,1032.8
2022-11-12T19:01:36.627Z,1032.8
2022-11-12T19:07:05.470Z,1032.8
2022-11-12T19:12:39.631Z,1032.8
2022-11-12T19:18:09.124Z,1032.7
2022-11-12T19:23:53.716Z,1032.8
2022-11-12T19:29:23.480Z,1032.8
2022-11-12T19:34:50.298Z,1032.8
2022-11-12T19:40:20.302Z,1032.8
2022-11-12T19:46:11.531Z,1032.8
2022-11-12T19:51:20.759Z,1032.9
2022-11-12T19:56:56.924Z,1032.8
2022-11-12T20:02:27.492Z,1032.7
2022-11-12T20:08:24.919Z,1032.6
2022-11-12T20:13:37.966Z,1032.5
2022-11-12T20:19:17.558Z,1032.4
2022-11-12T20:24:55.491Z,1032.3
2022-11-12T20:30:14.855Z,1032.4
2022-11-12T20:35:51.942Z,1032.4
2022-11-12T20:41:40.082Z,1032.3
2022-11-12T20:47:10.018Z,1032.3
2022-11-12T20:52:21.343Z,1032.3
2022-11-12T20:58:08.761Z,1032.3
2022-11-12T21:03:47.944Z,1032.2
2022-11-12T21:09:19.302Z,1032.2
2022-11-12T21:14:34.256Z,1032.1
2022-11-12T21:20:26.468Z,1032
2022-11-12T21:25:37.465Z,1032.1
2022-11-12T21:31:16.097Z,1032.2
2022-11-12T21:36:56.645Z,1032.1
2022-11-12T21:42:43.154Z,1032.1
2022-11-12T21:47:58.858Z,1032.1
2022-11-12T21:53:47.966Z,1032
2022-11-12T21:59:12.935Z,1032
2022-11-12T22:04:36.907Z,1031.8
2022-11-12T22:10:13.802Z,1031.9
2022-11-12T22:15:56.303Z,1031.9
2022-11-12T22:21:23.877Z,1031.8
2022-11-12T22:27:05.790Z,1031.7
2022-11-12T22:32:16.656Z,1031.6
2022-11-12T22:38:09.793Z,1031.6
2022-11-12T22:43:23.760Z,1031.4
2022-11-12T22:48:57.406Z,1031.4
2022-11-12T22:54:42.846Z,1031.3
2022-11-12T22:59:55.387Z,1031.2
2022-11-12T23:05:43.075Z,1031.2
2022-11-12T23:11:03.842Z,1031
2022-11-12T23:16:52.361Z,1031
2022-11-12T23:22:07.799Z,1031
2022-11-12T23:27:41.168Z,1030.9
2022-11-12T23:33:31.020Z,1030.8
2022-11-12T23:39:04.280Z,1030.8
2022-11-12T23:44:40.193Z,1030.7
2022-11-12T23:50:01.874Z,1030.8
2022-11-12T23:55:46.494Z,1030.7
